sensor_id;sensor_type;location;lat;lon;timestamp;pressure;altitude;pressure_sealevel;temperature;humidity
64402;BME280;50724;42.376;23.768;2023-05-20T00:01:59;93456.56;;;9.46;100.00
64402;BME280;50724;42.376;23.768;2023-05-20T00:05:00;93456.50;;;9.38;100.00
64402;BME280;50724;42.376;23.768;2023-05-20T00:08:00;93457.56;;;9.28;100.00
64402;BME280;50724;42.376;23.768;2023-05-20T00:11:03;93454.72;;;9.21;100.00
64402;BME280;50724;42.376;23.768;2023-05-20T00:14:04;93453.06;;;9.20;100.00
64402;BME280;50724;42.376;23.768;2023-05-20T00:17:04;93450.38;;;9.12;100.00
64402;BME280;50724;42.376;23.768;2023-05-20T00:20:05;93440.16;;;9.01;100.00
64402;BME280;50724;42.376;23.768;2023-05-20T00:23:06;93440.16;;;8.83;100.00
64402;BME280;50724;42.376;23.768;2023-05-20T00:26:06;93441.81;;;9.02;100.00
64402;BME280;50724;42.376;23.768;2023-05-20T00:29:07;93437.28;;;9.04;100.00
64402;BME280;50724;42.376;23.768;2023-05-20T00:32:07;93433.84;;;8.86;100.00
64402;BME280;50724;42.376;23.768;2023-05-20T00:35:08;93431.91;;;8.61;100.00
64402;BME280;50724;42.376;23.768;2023-05-20T00:38:10;93433.31;;;8.82;100.00
64402;BME280;50724;42.376;23.768;2023-05-20T00:41:10;93440.00;;;8.85;100.00
64402;BME280;50724;42.376;23.768;2023-05-20T00:44:11;93433.53;;;8.71;100.00
64402;BME280;50724;42.376;23.768;2023-05-20T00:47:12;93431.03;;;8.70;100.00
64402;BME280;50724;42.376;23.768;2023-05-20T00:50:13;93425.09;;;8.60;100.00
64402;BME280;50724;42.376;23.768;2023-05-20T00:53:16;93426.75;;;8.51;100.00
64402;BME280;50724;42.376;23.768;2023-05-20T00:56:17;93428.41;;;8.52;100.00
64402;BME280;50724;42.376;23.768;2023-05-20T00:59:18;93416.66;;;8.48;100.00
64402;BME280;50724;42.376;23.768;2023-05-20T01:02:18;93414.94;;;8.57;100.00
64402;BME280;50724;42.376;23.768;2023-05-20T01:05:19;93416.28;;;8.61;100.00
64402;BME280;50724;42.376;23.768;2023-05-20T01:08:20;93420.44;;;8.54;100.00
64402;BME280;50724;42.376;23.768;2023-05-20T01:11:30;93418.38;;;8.30;100.00
64402;BME280;50724;42.376;23.768;2023-05-20T01:14:36;93417.16;;;8.24;100.00
64402;BME280;50724;42.376;23.768;2023-05-20T01:17:40;93418.53;;;8.28;100.00
64402;BME280;50724;42.376;23.768;2023-05-20T01:20:46;93417.84;;;8.26;100.00
64402;BME280;50724;42.376;23.768;2023-05-20T01:23:48;93412.88;;;8.33;100.00
64402;BME280;50724;42.376;23.768;2023-05-20T01:26:49;93409.88;;;8.28;100.00
64402;BME280;50724;42.376;23.768;2023-05-20T01:29:50;93410.66;;;8.38;100.00
64402;BME280;50724;42.376;23.768;2023-05-20T01:32:54;93410.88;;;8.45;100.00
64402;BME280;50724;42.376;23.768;2023-05-20T01:35:57;93416.59;;;8.58;100.00
64402;BME280;50724;42.376;23.768;2023-05-20T01:38:59;93420.06;;;8.49;100.00
64402;BME280;50724;42.376;23.768;2023-05-20T01:42:02;93413.66;;;8.43;100.00
64402;BME280;50724;42.376;23.768;2023-05-20T01:45:04;93405.88;;;8.34;100.00
64402;BME280;50724;42.376;23.768;2023-05-20T01:48:07;93406.34;;;8.47;100.00
64402;BME280;50724;42.376;23.768;2023-05-20T01:51:07;93409.94;;;8.46;100.00
64402;BME280;50724;42.376;23.768;2023-05-20T01:54:07;93409.72;;;8.39;100.00
64402;BME280;50724;42.376;23.768;2023-05-20T01:57:08;93409.72;;;8.39;100.00
64402;BME280;50724;42.376;23.768;2023-05-20T02:00:10;93409.00;;;8.37;100.00
64402;BME280;50724;42.376;23.768;2023-05-20T02:03:10;93404.50;;;8.39;100.00
64402;BME280;50724;42.376;23.768;2023-05-20T02:06:11;93393.91;;;8.41;100.00
64402;BME280;50724;42.376;23.768;2023-05-20T02:09:11;93404.34;;;8.58;100.00
64402;BME280;50724;42.376;23.768;2023-05-20T02:12:12;93399.78;;;8.43;100.00
64402;BME280;50724;42.376;23.768;2023-05-20T02:15:16;93402.56;;;8.41;100.00
64402;BME280;50724;42.376;23.768;2023-05-20T02:18:16;93401.56;;;8.42;100.00
64402;BME280;50724;42.376;23.768;2023-05-20T02:21:17;93403.56;;;8.21;100.00
64402;BME280;50724;42.376;23.768;2023-05-20T02:24:18;93403.94;;;8.36;100.00
64402;BME280;50724;42.376;23.768;2023-05-20T02:27:20;93409.47;;;8.23;100.00
64402;BME280;50724;42.376;23.768;2023-05-20T02:30:20;93400.44;;;8.17;100.00
64402;BME280;50724;42.376;23.768;2023-05-20T02:33:21;93400.00;;;8.22;100.00
64402;BME280;50724;42.376;23.768;2023-05-20T02:36:21;93400.53;;;8.25;100.00
64402;BME280;50724;42.376;23.768;2023-05-20T02:39:22;93395.31;;;8.25;100.00
64402;BME280;50724;42.376;23.768;2023-05-20T02:42:22;93401.63;;;8.23;100.00
64402;BME280;50724;42.376;23.768;2023-05-20T02:45:22;93401.94;;;8.29;100.00
64402;BME280;50724;42.376;23.768;2023-05-20T02:48:23;93414.53;;;8.24;100.00
64402;BME280;50724;42.376;23.768;2023-05-20T02:51:24;93401.56;;;8.42;100.00
64402;BME280;50724;42.376;23.768;2023-05-20T02:54:25;93411.81;;;8.53;100.00
64402;BME280;50724;42.376;23.768;2023-05-20T02:57:25;93404.34;;;8.41;100.00
64402;BME280;50724;42.376;23.768;2023-05-20T03:00:28;93407.63;;;8.43;100.00
64402;BME280;50724;42.376;23.768;2023-05-20T03:03:30;93409.81;;;8.10;100.00
64402;BME280;50724;42.376;23.768;2023-05-20T03:06:34;93411.16;;;8.14;100.00
64402;BME280;50724;42.376;23.768;2023-05-20T03:09:34;93404.84;;;8.17;100.00
64402;BME280;50724;42.376;23.768;2023-05-20T03:12:35;93411.25;;;8.22;100.00
64402;BME280;50724;42.376;23.768;2023-05-20T03:15:38;93409.72;;;8.39;100.00
64402;BME280;50724;42.376;23.768;2023-05-20T03:18:39;93413.66;;;8.43;100.00
64402;BME280;50724;42.376;23.768;2023-05-20T03:21:39;93422.81;;;8.47;100.00
64402;BME280;50724;42.376;23.768;2023-05-20T03:24:40;93422.59;;;8.41;100.00
64402;BME280;50724;42.376;23.768;2023-05-20T03:27:42;93424.31;;;8.50;100.00
64402;BME280;50724;42.376;23.768;2023-05-20T03:30:43;93424.41;;;8.58;100.00
64402;BME280;50724;42.376;23.768;2023-05-20T03:33:44;93421.75;;;8.67;100.00
64402;BME280;50724;42.376;23.768;2023-05-20T03:36:45;93426.31;;;8.83;100.00
64402;BME280;50724;42.376;23.768;2023-05-20T03:39:45;93427.41;;;8.98;100.00
64402;BME280;50724;42.376;23.768;2023-05-20T03:42:46;93421.69;;;9.12;100.00
64402;BME280;50724;42.376;23.768;2023-05-20T03:45:46;93421.47;;;9.23;100.00
64402;BME280;50724;42.376;23.768;2023-05-20T03:48:47;93425.69;;;9.42;100.00
64402;BME280;50724;42.376;23.768;2023-05-20T03:51:47;93426.22;;;9.71;100.00
64402;BME280;50724;42.376;23.768;2023-05-20T03:54:47;93436.97;;;10.11;100.00
64402;BME280;50724;42.376;23.768;2023-05-20T03:57:48;93445.63;;;10.12;100.00
64402;BME280;50724;42.376;23.768;2023-05-20T04:00:48;93444.88;;;10.61;100.00
64402;BME280;50724;42.376;23.768;2023-05-20T04:03:49;93448.81;;;10.57;100.00
64402;BME280;50724;42.376;23.768;2023-05-20T04:06:52;93452.78;;;10.77;100.00
64402;BME280;50724;42.376;23.768;2023-05-20T04:09:53;93453.91;;;11.25;100.00
64402;BME280;50724;42.376;23.768;2023-05-20T04:12:53;93448.16;;;12.10;98.09
64402;BME280;50724;42.376;23.768;2023-05-20T04:15:54;93449.44;;;13.69;88.33
64402;BME280;50724;42.376;23.768;2023-05-20T04:18:55;93448.25;;;14.75;82.76
64402;BME280;50724;42.376;23.768;2023-05-20T04:21:55;93448.69;;;16.28;74.74
64402;BME280;50724;42.376;23.768;2023-05-20T04:24:56;93442.03;;;17.48;69.94
64402;BME280;50724;42.376;23.768;2023-05-20T04:27:56;93439.97;;;16.56;71.38
64402;BME280;50724;42.376;23.768;2023-05-20T04:31:01;93441.91;;;17.63;66.53
64402;BME280;50724;42.376;23.768;2023-05-20T04:34:04;93434.81;;;17.83;65.89
64402;BME280;50724;42.376;23.768;2023-05-20T04:37:05;93436.53;;;17.43;67.25
64402;BME280;50724;42.376;23.768;2023-05-20T04:40:09;93438.31;;;18.56;63.09
64402;BME280;50724;42.376;23.768;2023-05-20T04:43:09;93447.22;;;21.19;56.25
64402;BME280;50724;42.376;23.768;2023-05-20T04:46:10;93450.84;;;21.24;55.48
64402;BME280;50724;42.376;23.768;2023-05-20T04:49:10;93451.09;;;22.72;52.03
64402;BME280;50724;42.376;23.768;2023-05-20T04:52:11;93468.75;;;24.22;46.54
64402;BME280;50724;42.376;23.768;2023-05-20T04:55:12;93467.16;;;24.37;46.32
64402;BME280;50724;42.376;23.768;2023-05-20T04:58:24;93466.94;;;25.22;40.08
64402;BME280;50724;42.376;23.768;2023-05-20T05:01:24;93469.00;;;25.53;41.79
64402;BME280;50724;42.376;23.768;2023-05-20T05:04:24;93470.06;;;26.17;40.98
64402;BME280;50724;42.376;23.768;2023-05-20T05:07:25;93461.84;;;25.80;42.85
64402;BME280;50724;42.376;23.768;2023-05-20T05:10:25;93461.78;;;25.75;43.48
64402;BME280;50724;42.376;23.768;2023-05-20T05:13:26;93456.03;;;25.45;42.92
64402;BME280;50724;42.376;23.768;2023-05-20T05:16:26;93471.22;;;24.40;43.24
64402;BME280;50724;42.376;23.768;2023-05-20T05:19:27;93467.75;;;21.84;47.88
64402;BME280;50724;42.376;23.768;2023-05-20T05:22:27;93458.31;;;21.34;47.90
64402;BME280;50724;42.376;23.768;2023-05-20T05:25:28;93456.13;;;20.08;53.41
64402;BME280;50724;42.376;23.768;2023-05-20T05:28:28;93449.13;;;18.47;57.10
64402;BME280;50724;42.376;23.768;2023-05-20T05:31:29;93450.94;;;18.21;58.86
64402;BME280;50724;42.376;23.768;2023-05-20T05:34:29;93449.09;;;18.34;55.95
64402;BME280;50724;42.376;23.768;2023-05-20T05:37:30;93456.22;;;18.34;57.16
64402;BME280;50724;42.376;23.768;2023-05-20T05:40:30;93458.69;;;18.55;59.74
64402;BME280;50724;42.376;23.768;2023-05-20T05:43:30;93455.63;;;18.84;66.22
64402;BME280;50724;42.376;23.768;2023-05-20T05:46:31;93462.78;;;18.44;65.54
64402;BME280;50724;42.376;23.768;2023-05-20T05:49:32;93456.84;;;18.10;63.62
64402;BME280;50724;42.376;23.768;2023-05-20T05:52:33;93452.56;;;18.02;64.21
64402;BME280;50724;42.376;23.768;2023-05-20T05:55:41;93454.72;;;17.66;62.25
64402;BME280;50724;42.376;23.768;2023-05-20T05:58:42;93459.47;;;17.90;61.31
64402;BME280;50724;42.376;23.768;2023-05-20T06:01:42;93453.41;;;18.55;61.62
64402;BME280;50724;42.376;23.768;2023-05-20T06:04:43;93445.22;;;18.89;58.97
64402;BME280;50724;42.376;23.768;2023-05-20T06:07:43;93446.81;;;18.97;63.05
64402;BME280;50724;42.376;23.768;2023-05-20T06:10:48;93451.13;;;18.85;64.13
64402;BME280;50724;42.376;23.768;2023-05-20T06:13:49;93453.09;;;19.09;63.91
64402;BME280;50724;42.376;23.768;2023-05-20T06:16:49;93452.81;;;19.37;61.78
64402;BME280;50724;42.376;23.768;2023-05-20T06:19:50;93454.50;;;19.18;64.22
64402;BME280;50724;42.376;23.768;2023-05-20T06:22:50;93453.53;;;19.06;64.58
64402;BME280;50724;42.376;23.768;2023-05-20T06:25:51;93449.28;;;18.79;58.58
64402;BME280;50724;42.376;23.768;2023-05-20T06:28:51;93439.72;;;18.78;58.78
64402;BME280;50724;42.376;23.768;2023-05-20T06:31:52;93439.66;;;18.97;59.94
64402;BME280;50724;42.376;23.768;2023-05-20T06:34:52;93434.88;;;19.26;58.11
64402;BME280;50724;42.376;23.768;2023-05-20T06:37:56;93433.00;;;19.33;58.57
64402;BME280;50724;42.376;23.768;2023-05-20T06:40:56;93434.38;;;19.55;60.19
64402;BME280;50724;42.376;23.768;2023-05-20T06:43:57;93430.88;;;19.61;59.87
64402;BME280;50724;42.376;23.768;2023-05-20T06:46:57;93426.38;;;19.61;56.84
64402;BME280;50724;42.376;23.768;2023-05-20T06:49:58;93428.72;;;19.45;56.37
64402;BME280;50724;42.376;23.768;2023-05-20T06:52:58;93426.66;;;19.47;56.94
64402;BME280;50724;42.376;23.768;2023-05-20T06:55:59;93424.34;;;19.12;56.17
64402;BME280;50724;42.376;23.768;2023-05-20T06:58:59;93426.28;;;19.43;55.42
64402;BME280;50724;42.376;23.768;2023-05-20T07:02:00;93431.41;;;19.38;54.68
64402;BME280;50724;42.376;23.768;2023-05-20T07:05:01;93429.53;;;19.83;52.39
64402;BME280;50724;42.376;23.768;2023-05-20T07:08:01;93422.59;;;19.82;53.92
64402;BME280;50724;42.376;23.768;2023-05-20T07:11:01;93421.88;;;20.00;56.30
64402;BME280;50724;42.376;23.768;2023-05-20T07:14:02;93413.53;;;20.27;56.42
64402;BME280;50724;42.376;23.768;2023-05-20T07:17:04;93418.66;;;20.47;47.63
64402;BME280;50724;42.376;23.768;2023-05-20T07:20:05;93416.88;;;20.41;48.10
64402;BME280;50724;42.376;23.768;2023-05-20T07:23:06;93416.56;;;20.00;46.70
64402;BME280;50724;42.376;23.768;2023-05-20T07:26:06;93419.03;;;19.12;47.03
64402;BME280;50724;42.376;23.768;2023-05-20T07:29:08;93412.00;;;19.38;48.73
64402;BME280;50724;42.376;23.768;2023-05-20T07:32:09;93416.28;;;18.75;48.19
64402;BME280;50724;42.376;23.768;2023-05-20T07:35:09;93412.34;;;19.03;49.57
64402;BME280;50724;42.376;23.768;2023-05-20T07:38:11;93420.25;;;19.61;48.66
64402;BME280;50724;42.376;23.768;2023-05-20T07:41:11;93417.88;;;19.46;50.74
64402;BME280;50724;42.376;23.768;2023-05-20T07:44:12;93432.41;;;19.31;49.01
64402;BME280;50724;42.376;23.768;2023-05-20T07:47:12;93427.94;;;19.38;50.53
64402;BME280;50724;42.376;23.768;2023-05-20T07:50:13;93420.03;;;19.62;49.14
64402;BME280;50724;42.376;23.768;2023-05-20T07:53:13;93415.69;;;19.37;46.99
64402;BME280;50724;42.376;23.768;2023-05-20T07:56:15;93415.72;;;19.68;47.79
64402;BME280;50724;42.376;23.768;2023-05-20T07:59:15;93410.19;;;19.38;46.48
64402;BME280;50724;42.376;23.768;2023-05-20T08:02:15;93400.78;;;20.05;46.36
64402;BME280;50724;42.376;23.768;2023-05-20T08:05:16;93401.88;;;19.90;46.25
64402;BME280;50724;42.376;23.768;2023-05-20T08:08:17;93408.19;;;19.96;47.11
64402;BME280;50724;42.376;23.768;2023-05-20T08:11:17;93395.44;;;19.80;45.21
64402;BME280;50724;42.376;23.768;2023-05-20T08:14:18;93400.78;;;20.05;47.21
64402;BME280;50724;42.376;23.768;2023-05-20T08:17:18;93397.84;;;20.44;47.02
64402;BME280;50724;42.376;23.768;2023-05-20T08:20:19;93396.03;;;20.81;45.10
64402;BME280;50724;42.376;23.768;2023-05-20T08:23:19;93406.38;;;20.71;45.58
64402;BME280;50724;42.376;23.768;2023-05-20T08:26:20;93396.75;;;21.31;45.19
64402;BME280;50724;42.376;23.768;2023-05-20T08:29:21;93393.81;;;21.50;44.92
64402;BME280;50724;42.376;23.768;2023-05-20T08:32:21;93394.59;;;21.69;43.62
64402;BME280;50724;42.376;23.768;2023-05-20T08:35:25;93382.00;;;21.46;42.67
64402;BME280;50724;42.376;23.768;2023-05-20T08:38:25;93383.94;;;21.69;44.37
64402;BME280;50724;42.376;23.768;2023-05-20T08:41:26;93381.91;;;21.53;45.29
64402;BME280;50724;42.376;23.768;2023-05-20T08:44:26;93380.41;;;21.09;45.30
64402;BME280;50724;42.376;23.768;2023-05-20T08:47:27;93385.50;;;21.10;43.79
64402;BME280;50724;42.376;23.768;2023-05-20T08:50:27;93383.66;;;20.50;44.66
64402;BME280;50724;42.376;23.768;2023-05-20T08:53:28;93378.16;;;19.96;47.21
64402;BME280;50724;42.376;23.768;2023-05-20T08:56:28;93385.63;;;19.49;45.63
64402;BME280;50724;42.376;23.768;2023-05-20T08:59:30;93380.41;;;19.36;48.28
64402;BME280;50724;42.376;23.768;2023-05-20T09:02:32;93382.38;;;19.47;47.50
64402;BME280;50724;42.376;23.768;2023-05-20T09:05:33;93379.41;;;19.68;46.24
64402;BME280;50724;42.376;23.768;2023-05-20T09:08:33;93387.84;;;19.83;47.29
64402;BME280;50724;42.376;23.768;2023-05-20T09:11:34;93386.81;;;19.60;47.23
64402;BME280;50724;42.376;23.768;2023-05-20T09:14:34;93386.53;;;19.99;49.92
64402;BME280;50724;42.376;23.768;2023-05-20T09:17:35;93382.09;;;20.42;47.83
64402;BME280;50724;42.376;23.768;2023-05-20T09:20:37;93376.41;;;20.82;46.61
64402;BME280;50724;42.376;23.768;2023-05-20T09:23:37;93371.00;;;20.27;47.81
64402;BME280;50724;42.376;23.768;2023-05-20T09:26:38;93374.03;;;20.55;47.71
64402;BME280;50724;42.376;23.768;2023-05-20T09:29:38;93377.78;;;20.17;50.32
64402;BME280;50724;42.376;23.768;2023-05-20T09:32:39;93370.84;;;20.22;49.51
64402;BME280;50724;42.376;23.768;2023-05-20T09:35:40;93370.06;;;20.40;46.08
64402;BME280;50724;42.376;23.768;2023-05-20T09:38:41;93359.50;;;20.76;48.92
64402;BME280;50724;42.376;23.768;2023-05-20T09:42:00;93349.75;;;21.06;45.62
64402;BME280;50724;42.376;23.768;2023-05-20T09:45:02;93350.88;;;21.17;40.76
64402;BME280;50724;42.376;23.768;2023-05-20T09:48:05;93347.66;;;21.86;42.54
64402;BME280;50724;42.376;23.768;2023-05-20T09:51:08;93349.69;;;22.25;43.44
64402;BME280;50724;42.376;23.768;2023-05-20T09:54:11;93352.50;;;22.30;46.28
64402;BME280;50724;42.376;23.768;2023-05-20T09:57:13;93354.22;;;23.06;45.06
64402;BME280;50724;42.376;23.768;2023-05-20T10:00:14;93346.59;;;22.40;41.44
64402;BME280;50724;42.376;23.768;2023-05-20T10:03:24;93357.97;;;22.70;42.07
64402;BME280;50724;42.376;23.768;2023-05-20T10:13:20;93374.34;;;22.09;45.95
64402;BME280;50724;42.376;23.768;2023-05-20T10:19:41;93361.03;;;21.02;49.18
64402;BME280;50724;42.376;23.768;2023-05-20T10:22:42;93371.06;;;19.58;58.46
64402;BME280;50724;42.376;23.768;2023-05-20T10:25:49;93369.66;;;18.54;64.66
64402;BME280;50724;42.376;23.768;2023-05-20T10:28:51;93377.00;;;17.80;69.43
64402;BME280;50724;42.376;23.768;2023-05-20T10:31:52;93376.59;;;17.03;71.32
64402;BME280;50724;42.376;23.768;2023-05-20T10:34:58;93367.81;;;16.83;76.09
64402;BME280;50724;42.376;23.768;2023-05-20T10:38:09;93355.19;;;16.85;78.37
64402;BME280;50724;42.376;23.768;2023-05-20T10:41:10;93344.59;;;16.03;85.73
64402;BME280;50724;42.376;23.768;2023-05-20T10:44:10;93356.31;;;16.28;83.63
64402;BME280;50724;42.376;23.768;2023-05-20T10:47:12;93350.38;;;16.54;85.14
64402;BME280;50724;42.376;23.768;2023-05-20T10:50:34;93362.00;;;16.60;83.78
64402;BME280;50724;42.376;23.768;2023-05-20T10:53:39;93360.28;;;16.18;86.59
64402;BME280;50724;42.376;23.768;2023-05-20T10:56:58;93375.97;;;16.26;87.65
64402;BME280;50724;42.376;23.768;2023-05-20T10:59:58;93372.75;;;16.58;88.34
64402;BME280;50724;42.376;23.768;2023-05-20T11:03:00;93373.13;;;17.02;87.86
64402;BME280;50724;42.376;23.768;2023-05-20T11:06:00;93367.84;;;17.63;86.68
64402;BME280;50724;42.376;23.768;2023-05-20T11:09:05;93363.38;;;18.09;85.65
64402;BME280;50724;42.376;23.768;2023-05-20T11:12:09;93365.97;;;18.42;86.30
64402;BME280;50724;42.376;23.768;2023-05-20T11:15:17;93362.91;;;18.65;80.51
64402;BME280;50724;42.376;23.768;2023-05-20T11:18:18;93362.59;;;18.92;78.76
64402;BME280;50724;42.376;23.768;2023-05-20T11:21:18;93367.66;;;19.07;77.04
64402;BME280;50724;42.376;23.768;2023-05-20T11:24:26;93370.25;;;19.13;70.94
64402;BME280;50724;42.376;23.768;2023-05-20T11:27:26;93369.09;;;19.47;67.64
64402;BME280;50724;42.376;23.768;2023-05-20T11:30:29;93361.28;;;19.90;69.27
64402;BME280;50724;42.376;23.768;2023-05-20T11:33:29;93362.25;;;20.20;60.64
64402;BME280;50724;42.376;23.768;2023-05-20T11:36:30;93363.22;;;20.50;65.85
64402;BME280;50724;42.376;23.768;2023-05-20T11:39:32;93357.34;;;20.67;58.18
64402;BME280;50724;42.376;23.768;2023-05-20T11:42:33;93350.94;;;20.31;59.47
64402;BME280;50724;42.376;23.768;2023-05-20T11:45:42;93345.50;;;20.44;66.32
64402;BME280;50724;42.376;23.768;2023-05-20T11:48:53;93346.69;;;20.85;63.21
64402;BME280;50724;42.376;23.768;2023-05-20T11:51:53;93339.38;;;20.98;54.54
64402;BME280;50724;42.376;23.768;2023-05-20T11:54:54;93329.34;;;21.00;60.33
64402;BME280;50724;42.376;23.768;2023-05-20T11:57:54;93329.72;;;21.52;58.03
64402;BME280;50724;42.376;23.768;2023-05-20T12:00:58;93325.63;;;21.19;54.99
64402;BME280;50724;42.376;23.768;2023-05-20T12:03:58;93325.00;;;20.70;59.59
64402;BME280;50724;42.376;23.768;2023-05-20T12:06:59;93323.63;;;20.00;60.39
64402;BME280;50724;42.376;23.768;2023-05-20T12:10:00;93327.34;;;19.30;63.46
64402;BME280;50724;42.376;23.768;2023-05-20T12:13:00;93329.09;;;18.40;68.98
64402;BME280;50724;42.376;23.768;2023-05-20T12:16:02;93321.22;;;18.14;74.84
64402;BME280;50724;42.376;23.768;2023-05-20T12:19:04;93326.94;;;17.72;79.08
64402;BME280;50724;42.376;23.768;2023-05-20T12:22:05;93339.00;;;17.07;86.94
64402;BME280;50724;42.376;23.768;2023-05-20T12:25:05;93338.06;;;16.68;90.30
64402;BME280;50724;42.376;23.768;2023-05-20T12:28:06;93338.50;;;16.78;89.30
64402;BME280;50724;42.376;23.768;2023-05-20T12:31:07;93340.69;;;16.68;94.12
64402;BME280;50724;42.376;23.768;2023-05-20T12:34:07;93327.31;;;16.35;96.56
64402;BME280;50724;42.376;23.768;2023-05-20T12:37:08;93327.28;;;15.94;97.01
64402;BME280;50724;42.376;23.768;2023-05-20T12:40:10;93326.97;;;15.82;97.95
64402;BME280;50724;42.376;23.768;2023-05-20T12:43:11;93328.31;;;15.72;98.47
64402;BME280;50724;42.376;23.768;2023-05-20T12:46:12;93332.84;;;15.57;98.20
64402;BME280;50724;42.376;23.768;2023-05-20T12:49:12;93318.28;;;15.61;99.49
64402;BME280;50724;42.376;23.768;2023-05-20T12:52:12;93318.84;;;15.35;99.10
64402;BME280;50724;42.376;23.768;2023-05-20T12:55:13;93313.91;;;15.47;95.64
64402;BME280;50724;42.376;23.768;2023-05-20T12:58:13;93310.47;;;15.46;84.99
64402;BME280;50724;42.376;23.768;2023-05-20T13:01:14;93305.44;;;15.79;100.00
64402;BME280;50724;42.376;23.768;2023-05-20T13:04:14;93306.47;;;15.57;100.00
64402;BME280;50724;42.376;23.768;2023-05-20T13:07:15;93299.78;;;15.33;99.14
64402;BME280;50724;42.376;23.768;2023-05-20T13:10:16;93297.06;;;15.05;98.17
64402;BME280;50724;42.376;23.768;2023-05-20T13:13:17;93295.06;;;15.29;100.00
64402;BME280;50724;42.376;23.768;2023-05-20T13:16:20;93286.31;;;15.70;99.42
64402;BME280;50724;42.376;23.768;2023-05-20T13:19:23;93284.75;;;16.10;94.40
64402;BME280;50724;42.376;23.768;2023-05-20T13:22:24;93285.56;;;16.52;93.36
64402;BME280;50724;42.376;23.768;2023-05-20T13:25:24;93281.00;;;16.80;92.47
64402;BME280;50724;42.376;23.768;2023-05-20T13:28:25;93276.84;;;17.25;88.58
64402;BME280;50724;42.376;23.768;2023-05-20T13:31:26;93277.69;;;17.77;83.68
64402;BME280;50724;42.376;23.768;2023-05-20T13:34:26;93278.41;;;18.30;77.70
64402;BME280;50724;42.376;23.768;2023-05-20T13:37:27;93271.38;;;19.06;71.71
64402;BME280;50724;42.376;23.768;2023-05-20T13:40:27;93271.31;;;19.19;70.77
64402;BME280;50724;42.376;23.768;2023-05-20T13:43:30;93273.19;;;19.50;68.94
64402;BME280;50724;42.376;23.768;2023-05-20T13:46:31;93267.03;;;19.74;67.86
64402;BME280;50724;42.376;23.768;2023-05-20T13:49:31;93260.63;;;19.64;67.76
64402;BME280;50724;42.376;23.768;2023-05-20T13:52:31;93257.19;;;19.57;67.02
64402;BME280;50724;42.376;23.768;2023-05-20T13:55:32;93245.34;;;19.59;65.59
64402;BME280;50724;42.376;23.768;2023-05-20T13:58:32;93242.25;;;19.38;71.85
64402;BME280;50724;42.376;23.768;2023-05-20T14:01:33;93239.97;;;19.35;70.60
64402;BME280;50724;42.376;23.768;2023-05-20T14:04:33;93253.41;;;19.08;68.31
64402;BME280;50724;42.376;23.768;2023-05-20T14:07:38;93241.13;;;18.83;69.69
64402;BME280;50724;42.376;23.768;2023-05-20T14:10:38;93253.69;;;18.56;69.72
64402;BME280;50724;42.376;23.768;2023-05-20T14:13:39;93246.38;;;18.38;70.51
64402;BME280;50724;42.376;23.768;2023-05-20T14:16:40;93240.13;;;18.20;72.84
64402;BME280;50724;42.376;23.768;2023-05-20T14:19:40;93239.88;;;18.34;69.51
64402;BME280;50724;42.376;23.768;2023-05-20T14:22:41;93246.88;;;18.73;65.57
64402;BME280;50724;42.376;23.768;2023-05-20T14:25:41;93242.63;;;18.72;69.71
64402;BME280;50724;42.376;23.768;2023-05-20T14:28:42;93249.59;;;18.60;68.85
64402;BME280;50724;42.376;23.768;2023-05-20T14:31:42;93243.28;;;18.54;66.52
64402;BME280;50724;42.376;23.768;2023-05-20T14:34:43;93236.13;;;18.68;67.02
64402;BME280;50724;42.376;23.768;2023-05-20T14:37:44;93237.41;;;18.59;67.59
64402;BME280;50724;42.376;23.768;2023-05-20T14:40:44;93231.00;;;19.04;67.00
64402;BME280;50724;42.376;23.768;2023-05-20T14:43:44;93225.53;;;19.31;62.28
64402;BME280;50724;42.376;23.768;2023-05-20T14:46:45;93229.91;;;19.18;59.13
64402;BME280;50724;42.376;23.768;2023-05-20T14:49:45;93227.53;;;19.10;60.44
64402;BME280;50724;42.376;23.768;2023-05-20T14:52:46;93225.63;;;19.17;60.99
64402;BME280;50724;42.376;23.768;2023-05-20T14:55:46;93219.38;;;19.05;64.97
64402;BME280;50724;42.376;23.768;2023-05-20T14:58:47;93221.34;;;19.16;64.94
64402;BME280;50724;42.376;23.768;2023-05-20T15:01:47;93217.69;;;19.17;63.67
64402;BME280;50724;42.376;23.768;2023-05-20T15:04:47;93225.97;;;18.96;62.29
64402;BME280;50724;42.376;23.768;2023-05-20T15:07:49;93223.22;;;18.78;64.47
64402;BME280;50724;42.376;23.768;2023-05-20T15:10:50;93236.44;;;18.47;64.56
64402;BME280;50724;42.376;23.768;2023-05-20T15:13:50;93222.16;;;18.35;64.20
64402;BME280;50724;42.376;23.768;2023-05-20T15:16:51;93224.22;;;18.33;65.18
64402;BME280;50724;42.376;23.768;2023-05-20T15:19:51;93223.44;;;18.26;67.53
64402;BME280;50724;42.376;23.768;2023-05-20T15:22:52;93225.56;;;17.98;67.08
64402;BME280;50724;42.376;23.768;2023-05-20T15:25:53;93223.94;;;17.90;63.57
64402;BME280;50724;42.376;23.768;2023-05-20T15:28:53;93224.56;;;17.72;65.32
64402;BME280;50724;42.376;23.768;2023-05-20T15:31:53;93226.03;;;17.55;63.88
64402;BME280;50724;42.376;23.768;2023-05-20T15:34:54;93227.81;;;17.35;66.08
64402;BME280;50724;42.376;23.768;2023-05-20T15:37:54;93220.50;;;17.31;67.48
64402;BME280;50724;42.376;23.768;2023-05-20T15:40:55;93223.16;;;17.11;66.63
64402;BME280;50724;42.376;23.768;2023-05-20T15:43:55;93215.63;;;17.14;67.24
64402;BME280;50724;42.376;23.768;2023-05-20T15:46:55;93230.03;;;17.12;66.84
64402;BME280;50724;42.376;23.768;2023-05-20T15:49:56;93218.03;;;16.96;67.23
64402;BME280;50724;42.376;23.768;2023-05-20T15:52:56;93222.94;;;16.99;66.96
64402;BME280;50724;42.376;23.768;2023-05-20T15:55:57;93210.72;;;17.11;66.77
64402;BME280;50724;42.376;23.768;2023-05-20T15:59:07;93219.47;;;17.12;65.79